sensor_id;sensor_type;location;lat;lon;timestamp;pressure;altitude;pressure_sealevel;temperature;humidity
55442;BME280;41313;58.740;50.174;2022-08-07T00:04:20;100687.75;;;23.33;53.49
55442;BME280;41313;58.740;50.174;2022-08-07T00:09:22;100692.28;;;23.51;52.60
55442;BME280;41313;58.740;50.174;2022-08-07T00:14:23;100712.81;;;23.42;53.14
55442;BME280;41313;58.740;50.174;2022-08-07T00:19:26;100705.16;;;23.47;53.27
55442;BME280;41313;58.740;50.174;2022-08-07T00:24:28;100712.94;;;23.40;53.04
55442;BME280;41313;58.740;50.174;2022-08-07T00:29:30;100708.88;;;23.18;53.44
55442;BME280;41313;58.740;50.174;2022-08-07T00:34:33;100720.81;;;23.24;53.01
55442;BME280;41313;58.740;50.174;2022-08-07T00:39:35;100721.84;;;23.23;52.81
55442;BME280;41313;58.740;50.174;2022-08-07T00:44:37;100700.59;;;23.12;52.63
55442;BME280;41313;58.740;50.174;2022-08-07T00:49:39;100704.47;;;23.00;53.02
55442;BME280;41313;58.740;50.174;2022-08-07T00:54:41;100716.75;;;23.20;52.74
55442;BME280;41313;58.740;50.174;2022-08-07T00:59:43;100719.59;;;23.18;52.93
55442;BME280;41313;58.740;50.174;2022-08-07T01:04:46;100716.47;;;23.23;53.31
55442;BME280;41313;58.740;50.174;2022-08-07T01:09:48;100727.19;;;23.23;53.32
55442;BME280;41313;58.740;50.174;2022-08-07T01:14:50;100723.22;;;23.00;53.34
55442;BME280;41313;58.740;50.174;2022-08-07T01:19:56;100729.59;;;23.16;53.19
55442;BME280;41313;58.740;50.174;2022-08-07T01:25:00;100726.91;;;23.26;53.05
55442;BME280;41313;58.740;50.174;2022-08-07T01:30:04;100719.47;;;23.38;53.54
55442;BME280;41313;58.740;50.174;2022-08-07T01:35:06;100702.28;;;23.31;53.26
55442;BME280;41313;58.740;50.174;2022-08-07T01:40:10;100723.06;;;23.47;52.80
55442;BME280;41313;58.740;50.174;2022-08-07T01:45:13;100706.75;;;23.40;53.21
55442;BME280;41313;58.740;50.174;2022-08-07T01:50:15;100715.75;;;23.66;52.30
55442;BME280;41313;58.740;50.174;2022-08-07T01:55:17;100706.69;;;23.50;53.31
55442;BME280;41313;58.740;50.174;2022-08-07T02:00:21;100709.06;;;23.53;53.13
55442;BME280;41313;58.740;50.174;2022-08-07T02:05:31;100677.81;;;23.79;52.28
55442;BME280;41313;58.740;50.174;2022-08-07T02:10:35;100700.50;;;24.03;52.72
55442;BME280;41313;58.740;50.174;2022-08-07T02:16:02;100711.06;;;24.22;52.24
55442;BME280;41313;58.740;50.174;2022-08-07T02:21:06;100711.94;;;24.49;52.10
55442;BME280;41313;58.740;50.174;2022-08-07T02:26:10;100707.56;;;24.48;52.40
55442;BME280;41313;58.740;50.174;2022-08-07T02:31:16;100717.06;;;24.60;51.93
55442;BME280;41313;58.740;50.174;2022-08-07T02:36:20;100699.97;;;24.69;51.86
55442;BME280;41313;58.740;50.174;2022-08-07T02:41:23;100710.72;;;24.69;52.18
55442;BME280;41313;58.740;50.174;2022-08-07T02:46:29;100713.09;;;24.81;51.92
55442;BME280;41313;58.740;50.174;2022-08-07T02:51:34;100709.19;;;25.01;51.79
55442;BME280;41313;58.740;50.174;2022-08-07T02:56:38;100682.94;;;24.95;51.82
55442;BME280;41313;58.740;50.174;2022-08-07T03:01:42;100683.41;;;25.24;51.71
55442;BME280;41313;58.740;50.174;2022-08-07T03:06:49;100704.84;;;25.67;51.71
55442;BME280;41313;58.740;50.174;2022-08-07T03:11:52;100675.44;;;25.82;51.57
55442;BME280;41313;58.740;50.174;2022-08-07T03:16:56;100693.25;;;26.32;51.74
55442;BME280;41313;58.740;50.174;2022-08-07T03:21:58;100683.81;;;26.52;51.42
55442;BME280;41313;58.740;50.174;2022-08-07T03:27:02;100696.19;;;26.86;50.93
55442;BME280;41313;58.740;50.174;2022-08-07T03:32:15;100701.19;;;27.37;50.34
55442;BME280;41313;58.740;50.174;2022-08-07T03:37:17;100706.34;;;27.46;49.82
55442;BME280;41313;58.740;50.174;2022-08-07T03:42:22;100714.25;;;27.79;49.07
55442;BME280;41313;58.740;50.174;2022-08-07T03:47:26;100708.72;;;27.95;48.44
55442;BME280;41313;58.740;50.174;2022-08-07T03:52:29;100709.16;;;28.22;48.11
55442;BME280;41313;58.740;50.174;2022-08-07T03:57:36;100710.53;;;28.41;46.71
55442;BME280;41313;58.740;50.174;2022-08-07T04:02:38;100708.13;;;28.61;46.80
55442;BME280;41313;58.740;50.174;2022-08-07T04:07:46;100710.75;;;28.69;47.42
55442;BME280;41313;58.740;50.174;2022-08-07T04:12:51;100701.88;;;28.75;47.55
55442;BME280;41313;58.740;50.174;2022-08-07T04:17:53;100704.50;;;28.83;47.76
55442;BME280;41313;58.740;50.174;2022-08-07T04:22:57;100710.56;;;29.15;46.58
55442;BME280;41313;58.740;50.174;2022-08-07T04:27:59;100700.31;;;29.32;46.78
55442;BME280;41313;58.740;50.174;2022-08-07T04:33:07;100699.13;;;29.35;46.89
55442;BME280;41313;58.740;50.174;2022-08-07T04:38:10;100695.97;;;29.52;46.53
55442;BME280;41313;58.740;50.174;2022-08-07T04:43:20;100699.41;;;29.61;45.79
55442;BME280;41313;58.740;50.174;2022-08-07T04:53:56;100700.06;;;29.85;45.82
55442;BME280;41313;58.740;50.174;2022-08-07T05:04:20;100693.13;;;30.53;44.54
55442;BME280;41313;58.740;50.174;2022-08-07T05:15:02;100688.94;;;30.85;43.37
55442;BME280;41313;58.740;50.174;2022-08-07T05:20:19;100678.78;;;31.01;43.29
55442;BME280;41313;58.740;50.174;2022-08-07T05:25:27;100682.16;;;31.16;42.31
55442;BME280;41313;58.740;50.174;2022-08-07T05:30:30;100691.44;;;31.35;41.47
55442;BME280;41313;58.740;50.174;2022-08-07T05:35:34;100682.69;;;31.40;40.92
55442;BME280;41313;58.740;50.174;2022-08-07T05:40:37;100689.22;;;31.85;40.50
55442;BME280;41313;58.740;50.174;2022-08-07T05:45:42;100684.25;;;32.09;40.24
55442;BME280;41313;58.740;50.174;2022-08-07T05:50:44;100675.88;;;32.17;39.56
55442;BME280;41313;58.740;50.174;2022-08-07T05:55:49;100675.84;;;32.30;39.06
55442;BME280;41313;58.740;50.174;2022-08-07T06:00:52;100668.09;;;32.40;38.28
55442;BME280;41313;58.740;50.174;2022-08-07T06:05:55;100681.69;;;32.54;37.83
55442;BME280;41313;58.740;50.174;2022-08-07T06:10:59;100668.28;;;32.59;37.50
55442;BME280;41313;58.740;50.174;2022-08-07T06:16:02;100664.84;;;32.83;38.18
55442;BME280;41313;58.740;50.174;2022-08-07T06:21:06;100660.66;;;32.87;37.69
55442;BME280;41313;58.740;50.174;2022-08-07T06:26:12;100637.63;;;32.83;37.09
55442;BME280;41313;58.740;50.174;2022-08-07T06:31:19;100671.47;;;33.07;36.77
55442;BME280;41313;58.740;50.174;2022-08-07T06:36:22;100660.38;;;33.09;36.04
55442;BME280;41313;58.740;50.174;2022-08-07T06:47:44;100645.91;;;33.15;36.13
55442;BME280;41313;58.740;50.174;2022-08-07T06:52:52;100660.19;;;33.42;36.38
55442;BME280;41313;58.740;50.174;2022-08-07T06:58:02;100659.47;;;33.60;35.75
55442;BME280;41313;58.740;50.174;2022-08-07T07:03:09;100657.94;;;33.64;35.50
55442;BME280;41313;58.740;50.174;2022-08-07T07:08:13;100659.19;;;33.68;35.58
55442;BME280;41313;58.740;50.174;2022-08-07T07:13:24;100659.47;;;33.85;34.57
55442;BME280;41313;58.740;50.174;2022-08-07T07:18:49;100647.19;;;34.01;35.26
55442;BME280;41313;58.740;50.174;2022-08-07T07:23:54;100648.00;;;34.01;35.03
55442;BME280;41313;58.740;50.174;2022-08-07T07:29:01;100658.28;;;34.06;35.06
55442;BME280;41313;58.740;50.174;2022-08-07T07:34:09;100659.88;;;34.32;34.31
55442;BME280;41313;58.740;50.174;2022-08-07T07:39:15;100627.69;;;34.22;34.60
55442;BME280;41313;58.740;50.174;2022-08-07T07:44:20;100644.88;;;34.23;33.65
55442;BME280;41313;58.740;50.174;2022-08-07T07:49:25;100651.94;;;34.31;33.37
55442;BME280;41313;58.740;50.174;2022-08-07T07:54:30;100649.81;;;34.33;33.36
55442;BME280;41313;58.740;50.174;2022-08-07T07:59:37;100615.59;;;34.37;33.25
55442;BME280;41313;58.740;50.174;2022-08-07T08:04:44;100635.31;;;34.57;32.70
55442;BME280;41313;58.740;50.174;2022-08-07T08:09:53;100635.88;;;34.41;32.85
55442;BME280;41313;58.740;50.174;2022-08-07T08:14:57;100615.06;;;34.28;32.53
55442;BME280;41313;58.740;50.174;2022-08-07T08:20:04;100626.41;;;34.43;32.81
55442;BME280;41313;58.740;50.174;2022-08-07T08:25:07;100628.41;;;34.55;32.39
55442;BME280;41313;58.740;50.174;2022-08-07T08:30:29;100620.75;;;34.63;31.52
55442;BME280;41313;58.740;50.174;2022-08-07T08:35:33;100618.03;;;34.63;30.89
55442;BME280;41313;58.740;50.174;2022-08-07T08:40:40;100622.38;;;34.83;31.01
55442;BME280;41313;58.740;50.174;2022-08-07T08:51:29;100608.75;;;35.13;31.08
55442;BME280;41313;58.740;50.174;2022-08-07T08:56:36;100584.31;;;35.06;30.29
55442;BME280;41313;58.740;50.174;2022-08-07T09:01:51;100596.69;;;34.90;30.65
55442;BME280;41313;58.740;50.174;2022-08-07T09:07:16;100599.94;;;34.99;31.00
55442;BME280;41313;58.740;50.174;2022-08-07T09:12:36;100580.13;;;35.34;30.88
55442;BME280;41313;58.740;50.174;2022-08-07T09:23:25;100581.06;;;35.51;29.89
55442;BME280;41313;58.740;50.174;2022-08-07T09:28:39;100576.06;;;35.48;29.94
55442;BME280;41313;58.740;50.174;2022-08-07T09:39:26;100570.25;;;35.45;30.33
55442;BME280;41313;58.740;50.174;2022-08-07T09:44:43;100551.25;;;35.38;30.24
55442;BME280;41313;58.740;50.174;2022-08-07T10:00:19;100549.97;;;35.52;29.14
55442;BME280;41313;58.740;50.174;2022-08-07T10:05:34;100544.59;;;35.46;29.29
55442;BME280;41313;58.740;50.174;2022-08-07T10:10:47;100541.50;;;35.42;29.07
55442;BME280;41313;58.740;50.174;2022-08-07T10:32:59;100519.31;;;36.09;28.63
55442;BME280;41313;58.740;50.174;2022-08-07T10:38:23;100523.47;;;36.12;28.83
55442;BME280;41313;58.740;50.174;2022-08-07T10:43:34;100523.22;;;36.13;28.15
55442;BME280;41313;58.740;50.174;2022-08-07T10:54:14;100488.72;;;36.24;27.69
55442;BME280;41313;58.740;50.174;2022-08-07T11:00:02;100515.41;;;36.45;28.58
55442;BME280;41313;58.740;50.174;2022-08-07T11:15:49;100507.44;;;35.92;28.52
55442;BME280;41313;58.740;50.174;2022-08-07T11:26:20;100489.00;;;35.87;28.42
55442;BME280;41313;58.740;50.174;2022-08-07T11:31:38;100504.22;;;36.07;29.07
55442;BME280;41313;58.740;50.174;2022-08-07T11:37:05;100504.41;;;36.17;28.54
55442;BME280;41313;58.740;50.174;2022-08-07T12:03:56;100471.91;;;35.80;28.27
55442;BME280;41313;58.740;50.174;2022-08-07T12:09:14;100464.88;;;35.84;28.37
55442;BME280;41313;58.740;50.174;2022-08-07T12:14:24;100457.06;;;35.76;28.25
55442;BME280;41313;58.740;50.174;2022-08-07T12:19:44;100448.97;;;35.81;27.87
55442;BME280;41313;58.740;50.174;2022-08-07T12:24:58;100450.03;;;35.80;27.74
55442;BME280;41313;58.740;50.174;2022-08-07T12:30:25;100440.19;;;35.79;28.00
55442;BME280;41313;58.740;50.174;2022-08-07T12:35:29;100415.47;;;35.74;28.29
55442;BME280;41313;58.740;50.174;2022-08-07T12:40:32;100439.44;;;35.83;27.02
55442;BME280;41313;58.740;50.174;2022-08-07T12:45:53;100425.16;;;35.93;27.50
55442;BME280;41313;58.740;50.174;2022-08-07T12:51:18;100437.03;;;36.11;27.18
55442;BME280;41313;58.740;50.174;2022-08-07T12:56:30;100440.50;;;36.06;27.12
55442;BME280;41313;58.740;50.174;2022-08-07T13:23:52;100399.06;;;35.74;27.33
55442;BME280;41313;58.740;50.174;2022-08-07T13:29:21;100411.88;;;35.85;27.23
55442;BME280;41313;58.740;50.174;2022-08-07T13:34:44;100390.63;;;35.75;27.40
55442;BME280;41313;58.740;50.174;2022-08-07T13:40:02;100393.97;;;35.66;28.89
55442;BME280;41313;58.740;50.174;2022-08-07T13:45:06;100386.97;;;35.70;28.02
55442;BME280;41313;58.740;50.174;2022-08-07T13:50:08;100398.41;;;35.67;28.45
55442;BME280;41313;58.740;50.174;2022-08-07T13:55:15;100397.19;;;35.39;29.58
55442;BME280;41313;58.740;50.174;2022-08-07T14:00:19;100395.75;;;35.48;29.15
55442;BME280;41313;58.740;50.174;2022-08-07T14:05:22;100384.28;;;35.34;29.87
55442;BME280;41313;58.740;50.174;2022-08-07T14:10:25;100389.84;;;35.28;30.10
55442;BME280;41313;58.740;50.174;2022-08-07T14:15:43;100380.72;;;35.22;29.83
55442;BME280;41313;58.740;50.174;2022-08-07T14:20:53;100359.44;;;34.89;29.93
55442;BME280;41313;58.740;50.174;2022-08-07T14:26:02;100384.16;;;35.18;29.97
55442;BME280;41313;58.740;50.174;2022-08-07T14:31:05;100363.03;;;35.01;29.53
55442;BME280;41313;58.740;50.174;2022-08-07T14:36:09;100384.84;;;35.01;29.93
55442;BME280;41313;58.740;50.174;2022-08-07T14:41:12;100388.16;;;34.91;30.31
55442;BME280;41313;58.740;50.174;2022-08-07T14:46:19;100377.47;;;34.66;30.94
55442;BME280;41313;58.740;50.174;2022-08-07T14:51:24;100383.97;;;34.65;30.66
55442;BME280;41313;58.740;50.174;2022-08-07T14:56:31;100396.13;;;34.51;31.03
55442;BME280;41313;58.740;50.174;2022-08-07T15:01:35;100358.59;;;34.35;31.40
55442;BME280;41313;58.740;50.174;2022-08-07T15:06:43;100383.50;;;34.38;31.91
55442;BME280;41313;58.740;50.174;2022-08-07T15:11:53;100388.00;;;34.33;31.59
55442;BME280;41313;58.740;50.174;2022-08-07T15:17:02;100383.00;;;34.30;32.04
55442;BME280;41313;58.740;50.174;2022-08-07T15:22:06;100376.94;;;34.16;32.13
55442;BME280;41313;58.740;50.174;2022-08-07T15:27:11;100374.16;;;34.04;32.84
55442;BME280;41313;58.740;50.174;2022-08-07T15:32:14;100392.22;;;33.98;33.08
55442;BME280;41313;58.740;50.174;2022-08-07T15:37:20;100389.91;;;33.84;33.30
55442;BME280;41313;58.740;50.174;2022-08-07T15:47:49;100357.97;;;33.35;33.68
55442;BME280;41313;58.740;50.174;2022-08-07T15:52:58;100368.25;;;33.33;33.89
55442;BME280;41313;58.740;50.174;2022-08-07T15:58:02;100382.59;;;33.22;34.84
55442;BME280;41313;58.740;50.174;2022-08-07T16:03:17;100376.59;;;33.13;34.44
55442;BME280;41313;58.740;50.174;2022-08-07T16:08:23;100358.63;;;32.87;34.62
55442;BME280;41313;58.740;50.174;2022-08-07T16:13:53;100383.63;;;33.03;34.86
55442;BME280;41313;58.740;50.174;2022-08-07T16:24:41;100381.50;;;32.80;34.60
55442;BME280;41313;58.740;50.174;2022-08-07T16:29:52;100387.94;;;32.60;35.26
55442;BME280;41313;58.740;50.174;2022-08-07T16:46:33;100397.13;;;32.21;35.71
55442;BME280;41313;58.740;50.174;2022-08-07T16:51:55;100400.22;;;31.86;36.32
55442;BME280;41313;58.740;50.174;2022-08-07T16:57:20;100396.31;;;31.55;37.00
55442;BME280;41313;58.740;50.174;2022-08-07T17:07:58;100378.63;;;30.93;38.15
55442;BME280;41313;58.740;50.174;2022-08-07T17:24:02;100417.13;;;30.29;41.52
55442;BME280;41313;58.740;50.174;2022-08-07T17:40:01;100422.72;;;29.72;43.04
55442;BME280;41313;58.740;50.174;2022-08-07T17:45:10;100391.06;;;29.45;43.33
55442;BME280;41313;58.740;50.174;2022-08-07T17:50:23;100389.34;;;29.37;43.59
55442;BME280;41313;58.740;50.174;2022-08-07T18:00:46;100412.94;;;29.15;44.39
55442;BME280;41313;58.740;50.174;2022-08-07T18:05:59;100403.94;;;28.87;44.07
55442;BME280;41313;58.740;50.174;2022-08-07T18:11:21;100434.06;;;28.83;44.72
55442;BME280;41313;58.740;50.174;2022-08-07T18:16:33;100433.16;;;28.76;44.41
55442;BME280;41313;58.740;50.174;2022-08-07T18:21:42;100404.78;;;28.44;45.42
55442;BME280;41313;58.740;50.174;2022-08-07T18:27:15;100428.38;;;28.21;46.43
55442;BME280;41313;58.740;50.174;2022-08-07T18:32:24;100407.75;;;27.83;46.45
55442;BME280;41313;58.740;50.174;2022-08-07T18:43:13;100438.66;;;27.95;46.43
55442;BME280;41313;58.740;50.174;2022-08-07T19:04:32;100443.03;;;27.52;47.23
55442;BME280;41313;58.740;50.174;2022-08-07T19:09:45;100457.13;;;27.39;47.88
55442;BME280;41313;58.740;50.174;2022-08-07T19:14:58;100443.66;;;27.39;47.99
55442;BME280;41313;58.740;50.174;2022-08-07T19:20:06;100449.22;;;27.23;48.11
55442;BME280;41313;58.740;50.174;2022-08-07T19:25:13;100450.50;;;27.27;48.15
55442;BME280;41313;58.740;50.174;2022-08-07T19:30:17;100447.53;;;27.22;48.05
55442;BME280;41313;58.740;50.174;2022-08-07T19:35:21;100447.34;;;27.23;48.44
55442;BME280;41313;58.740;50.174;2022-08-07T19:40:27;100449.44;;;27.13;48.74
55442;BME280;41313;58.740;50.174;2022-08-07T19:45:30;100445.69;;;26.99;48.82
55442;BME280;41313;58.740;50.174;2022-08-07T19:50:37;100450.66;;;26.88;49.62
55442;BME280;41313;58.740;50.174;2022-08-07T19:55:43;100458.69;;;26.73;49.70
55442;BME280;41313;58.740;50.174;2022-08-07T20:00:47;100460.59;;;26.64;49.57
55442;BME280;41313;58.740;50.174;2022-08-07T20:05:54;100462.84;;;26.52;49.80
55442;BME280;41313;58.740;50.174;2022-08-07T20:11:04;100459.44;;;26.58;50.03
55442;BME280;41313;58.740;50.174;2022-08-07T20:16:08;100467.53;;;26.58;49.76
55442;BME280;41313;58.740;50.174;2022-08-07T20:21:12;100470.31;;;26.42;50.25
55442;BME280;41313;58.740;50.174;2022-08-07T20:26:14;100435.31;;;26.03;50.25
55442;BME280;41313;58.740;50.174;2022-08-07T20:31:20;100469.75;;;26.16;50.64
55442;BME280;41313;58.740;50.174;2022-08-07T20:36:24;100465.38;;;26.14;50.53
55442;BME280;41313;58.740;50.174;2022-08-07T20:41:30;100470.34;;;25.95;50.88
55442;BME280;41313;58.740;50.174;2022-08-07T20:46:32;100453.53;;;25.84;50.81
55442;BME280;41313;58.740;50.174;2022-08-07T20:51:34;100487.34;;;25.95;50.75
55442;BME280;41313;58.740;50.174;2022-08-07T20:56:38;100472.88;;;25.80;51.04
55442;BME280;41313;58.740;50.174;2022-08-07T21:01:43;100473.59;;;25.74;50.92
55442;BME280;41313;58.740;50.174;2022-08-07T21:06:47;100455.13;;;25.46;51.32
55442;BME280;41313;58.740;50.174;2022-08-07T21:11:51;100475.78;;;25.62;50.79
55442;BME280;41313;58.740;50.174;2022-08-07T21:17:01;100479.81;;;25.58;50.72
55442;BME280;41313;58.740;50.174;2022-08-07T21:22:04;100469.59;;;25.45;51.06
55442;BME280;41313;58.740;50.174;2022-08-07T21:32:33;100467.09;;;25.43;51.04
55442;BME280;41313;58.740;50.174;2022-08-07T21:42:58;100475.50;;;25.32;51.35
55442;BME280;41313;58.740;50.174;2022-08-07T21:53:23;100461.03;;;25.00;51.99
55442;BME280;41313;58.740;50.174;2022-08-07T21:58:45;100466.06;;;25.04;51.40
55442;BME280;41313;58.740;50.174;2022-08-07T22:04:06;100475.97;;;24.87;51.77
55442;BME280;41313;58.740;50.174;2022-08-07T22:09:10;100461.53;;;24.88;51.74
55442;BME280;41313;58.740;50.174;2022-08-07T22:14:14;100458.81;;;25.04;50.98
55442;BME280;41313;58.740;50.174;2022-08-07T22:19:27;100428.44;;;24.87;50.72
55442;BME280;41313;58.740;50.174;2022-08-07T22:24:47;100457.00;;;25.05;50.75
55442;BME280;41313;58.740;50.174;2022-08-07T22:30:08;100459.50;;;25.06;50.96
55442;BME280;41313;58.740;50.174;2022-08-07T22:35:13;100433.44;;;24.58;51.39
55442;BME280;41313;58.740;50.174;2022-08-07T22:56:46;100480.84;;;24.32;52.61
55442;BME280;41313;58.740;50.174;2022-08-07T23:02:23;100446.50;;;24.02;52.59
55442;BME280;41313;58.740;50.174;2022-08-07T23:07:52;100485.19;;;24.25;52.13
55442;BME280;41313;58.740;50.174;2022-08-07T23:13:22;100488.91;;;24.24;52.59
55442;BME280;41313;58.740;50.174;2022-08-07T23:18:39;100490.19;;;24.20;52.13
55442;BME280;41313;58.740;50.174;2022-08-07T23:46:06;100499.94;;;23.87;53.25
55442;BME280;41313;58.740;50.174;2022-08-07T23:51:16;100497.91;;;23.63;53.69
55442;BME280;41313;58.740;50.174;2022-08-07T23:56:25;100485.16;;;23.57;53.85
